sensor_id;sensor_type;location;lat;lon;timestamp;P1;durP1;ratioP1;P2;durP2;ratioP2
66585;SDS011;53444;45.822;16.092;2023-12-29T00:00:55;30.50;;;13.30;;
66585;SDS011;53444;45.822;16.092;2023-12-29T00:03:22;26.02;;;12.57;;
66585;SDS011;53444;45.822;16.092;2023-12-29T00:05:53;26.33;;;12.25;;
66585;SDS011;53444;45.822;16.092;2023-12-29T00:08:34;19.75;;;10.55;;
66585;SDS011;53444;45.822;16.092;2023-12-29T00:11:06;25.80;;;11.13;;
66585;SDS011;53444;45.822;16.092;2023-12-29T00:13:40;22.87;;;10.50;;
66585;SDS011;53444;45.822;16.092;2023-12-29T00:16:13;19.63;;;10.55;;
66585;SDS011;53444;45.822;16.092;2023-12-29T00:18:50;20.02;;;10.05;;
66585;SDS011;53444;45.822;16.092;2023-12-29T00:21:20;21.45;;;10.77;;
66585;SDS011;53444;45.822;16.092;2023-12-29T00:23:58;18.33;;;9.98;;
66585;SDS011;53444;45.822;16.092;2023-12-29T00:26:30;18.47;;;9.87;;
66585;SDS011;53444;45.822;16.092;2023-12-29T00:29:03;20.08;;;10.30;;
66585;SDS011;53444;45.822;16.092;2023-12-29T00:31:35;19.20;;;9.88;;
66585;SDS011;53444;45.822;16.092;2023-12-29T00:34:07;19.73;;;10.05;;
66585;SDS011;53444;45.822;16.092;2023-12-29T00:36:40;20.00;;;9.77;;
66585;SDS011;53444;45.822;16.092;2023-12-29T00:39:12;21.90;;;10.33;;
66585;SDS011;53444;45.822;16.092;2023-12-29T00:41:58;19.33;;;9.65;;
66585;SDS011;53444;45.822;16.092;2023-12-29T00:44:34;24.75;;;9.73;;
66585;SDS011;53444;45.822;16.092;2023-12-29T00:47:08;19.73;;;10.20;;
66585;SDS011;53444;45.822;16.092;2023-12-29T00:49:42;19.92;;;9.77;;
66585;SDS011;53444;45.822;16.092;2023-12-29T00:52:12;19.57;;;9.03;;
66585;SDS011;53444;45.822;16.092;2023-12-29T00:54:51;18.38;;;9.30;;
66585;SDS011;53444;45.822;16.092;2023-12-29T00:57:24;18.08;;;9.10;;
66585;SDS011;53444;45.822;16.092;2023-12-29T00:59:55;18.08;;;8.38;;
66585;SDS011;53444;45.822;16.092;2023-12-29T01:02:26;14.90;;;8.23;;
66585;SDS011;53444;45.822;16.092;2023-12-29T01:05:00;14.13;;;7.73;;
66585;SDS011;53444;45.822;16.092;2023-12-29T01:07:27;15.38;;;7.97;;
66585;SDS011;53444;45.822;16.092;2023-12-29T01:09:56;17.10;;;8.02;;
66585;SDS011;53444;45.822;16.092;2023-12-29T01:12:25;13.70;;;7.97;;
66585;SDS011;53444;45.822;16.092;2023-12-29T01:14:55;13.77;;;7.97;;
66585;SDS011;53444;45.822;16.092;2023-12-29T01:17:25;17.17;;;7.73;;
66585;SDS011;53444;45.822;16.092;2023-12-29T01:19:58;17.20;;;7.80;;
66585;SDS011;53444;45.822;16.092;2023-12-29T01:22:31;15.13;;;7.88;;
66585;SDS011;53444;45.822;16.092;2023-12-29T01:25:12;13.23;;;7.15;;
66585;SDS011;53444;45.822;16.092;2023-12-29T01:27:49;15.48;;;7.22;;
66585;SDS011;53444;45.822;16.092;2023-12-29T01:30:23;14.47;;;7.73;;
66585;SDS011;53444;45.822;16.092;2023-12-29T01:32:53;16.27;;;7.93;;
66585;SDS011;53444;45.822;16.092;2023-12-29T01:35:22;14.85;;;7.07;;
66585;SDS011;53444;45.822;16.092;2023-12-29T01:37:57;16.73;;;7.80;;
66585;SDS011;53444;45.822;16.092;2023-12-29T01:40:26;15.00;;;7.47;;
66585;SDS011;53444;45.822;16.092;2023-12-29T01:42:57;17.53;;;7.53;;
66585;SDS011;53444;45.822;16.092;2023-12-29T01:45:25;18.25;;;8.40;;
66585;SDS011;53444;45.822;16.092;2023-12-29T01:47:54;19.33;;;9.10;;
66585;SDS011;53444;45.822;16.092;2023-12-29T01:50:21;16.25;;;8.30;;
66585;SDS011;53444;45.822;16.092;2023-12-29T01:52:49;15.18;;;7.75;;
66585;SDS011;53444;45.822;16.092;2023-12-29T01:55:17;17.20;;;7.63;;
66585;SDS011;53444;45.822;16.092;2023-12-29T01:57:46;15.20;;;7.70;;
66585;SDS011;53444;45.822;16.092;2023-12-29T02:00:14;16.77;;;7.57;;
66585;SDS011;53444;45.822;16.092;2023-12-29T02:02:43;16.08;;;8.05;;
66585;SDS011;53444;45.822;16.092;2023-12-29T02:05:12;17.48;;;7.53;;
66585;SDS011;53444;45.822;16.092;2023-12-29T02:07:40;15.53;;;6.80;;
66585;SDS011;53444;45.822;16.092;2023-12-29T02:10:08;15.20;;;7.32;;
66585;SDS011;53444;45.822;16.092;2023-12-29T02:12:35;16.45;;;7.15;;
66585;SDS011;53444;45.822;16.092;2023-12-29T02:15:03;15.50;;;6.32;;
66585;SDS011;53444;45.822;16.092;2023-12-29T02:17:31;13.48;;;6.82;;
66585;SDS011;53444;45.822;16.092;2023-12-29T02:20:04;13.03;;;6.83;;
66585;SDS011;53444;45.822;16.092;2023-12-29T02:22:34;11.15;;;6.20;;
66585;SDS011;53444;45.822;16.092;2023-12-29T02:25:03;13.63;;;6.20;;
66585;SDS011;53444;45.822;16.092;2023-12-29T02:27:33;14.35;;;6.00;;
66585;SDS011;53444;45.822;16.092;2023-12-29T02:30:09;14.38;;;6.28;;
66585;SDS011;53444;45.822;16.092;2023-12-29T02:32:38;12.40;;;6.40;;
66585;SDS011;53444;45.822;16.092;2023-12-29T02:35:08;10.32;;;6.13;;
66585;SDS011;53444;45.822;16.092;2023-12-29T02:37:37;10.13;;;5.70;;
66585;SDS011;53444;45.822;16.092;2023-12-29T02:40:07;9.55;;;5.53;;
66585;SDS011;53444;45.822;16.092;2023-12-29T02:42:35;10.48;;;5.85;;
66585;SDS011;53444;45.822;16.092;2023-12-29T02:45:02;12.43;;;6.43;;
66585;SDS011;53444;45.822;16.092;2023-12-29T02:47:29;12.18;;;5.85;;
66585;SDS011;53444;45.822;16.092;2023-12-29T02:49:56;10.75;;;5.35;;
66585;SDS011;53444;45.822;16.092;2023-12-29T02:52:23;11.32;;;5.30;;
66585;SDS011;53444;45.822;16.092;2023-12-29T02:54:49;11.77;;;5.38;;
66585;SDS011;53444;45.822;16.092;2023-12-29T02:57:18;7.43;;;4.30;;
66585;SDS011;53444;45.822;16.092;2023-12-29T02:59:44;11.13;;;4.97;;
66585;SDS011;53444;45.822;16.092;2023-12-29T03:02:11;11.27;;;5.50;;
66585;SDS011;53444;45.822;16.092;2023-12-29T03:04:38;12.77;;;5.75;;
66585;SDS011;53444;45.822;16.092;2023-12-29T03:07:05;12.82;;;5.60;;
66585;SDS011;53444;45.822;16.092;2023-12-29T03:09:31;13.27;;;5.87;;
66585;SDS011;53444;45.822;16.092;2023-12-29T03:11:58;10.10;;;5.53;;
66585;SDS011;53444;45.822;16.092;2023-12-29T03:14:26;11.88;;;6.05;;
66585;SDS011;53444;45.822;16.092;2023-12-29T03:16:53;10.98;;;6.10;;
66585;SDS011;53444;45.822;16.092;2023-12-29T03:19:20;14.65;;;6.03;;
66585;SDS011;53444;45.822;16.092;2023-12-29T03:21:47;10.80;;;6.57;;
66585;SDS011;53444;45.822;16.092;2023-12-29T03:24:13;12.48;;;6.38;;
66585;SDS011;53444;45.822;16.092;2023-12-29T03:26:40;10.48;;;6.45;;
66585;SDS011;53444;45.822;16.092;2023-12-29T03:29:07;14.98;;;7.10;;
66585;SDS011;53444;45.822;16.092;2023-12-29T03:31:35;12.13;;;6.57;;
66585;SDS011;53444;45.822;16.092;2023-12-29T03:34:02;16.20;;;8.30;;
66585;SDS011;53444;45.822;16.092;2023-12-29T03:36:29;14.57;;;8.23;;
66585;SDS011;53444;45.822;16.092;2023-12-29T03:38:56;17.23;;;7.63;;
66585;SDS011;53444;45.822;16.092;2023-12-29T03:41:25;13.68;;;6.60;;
66585;SDS011;53444;45.822;16.092;2023-12-29T03:43:52;10.35;;;5.95;;
66585;SDS011;53444;45.822;16.092;2023-12-29T03:46:19;11.30;;;5.60;;
66585;SDS011;53444;45.822;16.092;2023-12-29T03:48:48;11.10;;;5.57;;
66585;SDS011;53444;45.822;16.092;2023-12-29T03:51:15;12.35;;;6.00;;
66585;SDS011;53444;45.822;16.092;2023-12-29T03:53:43;13.50;;;5.97;;
66585;SDS011;53444;45.822;16.092;2023-12-29T03:56:12;11.55;;;5.68;;
66585;SDS011;53444;45.822;16.092;2023-12-29T03:58:40;13.07;;;6.00;;
66585;SDS011;53444;45.822;16.092;2023-12-29T04:01:09;9.52;;;4.57;;
66585;SDS011;53444;45.822;16.092;2023-12-29T04:03:36;7.70;;;4.45;;
66585;SDS011;53444;45.822;16.092;2023-12-29T04:06:04;11.18;;;4.88;;
66585;SDS011;53444;45.822;16.092;2023-12-29T04:08:31;9.25;;;5.03;;
66585;SDS011;53444;45.822;16.092;2023-12-29T04:10:58;15.97;;;5.77;;
66585;SDS011;53444;45.822;16.092;2023-12-29T04:13:25;10.05;;;4.80;;
66585;SDS011;53444;45.822;16.092;2023-12-29T04:15:52;9.95;;;4.45;;
66585;SDS011;53444;45.822;16.092;2023-12-29T04:18:20;10.70;;;6.03;;
66585;SDS011;53444;45.822;16.092;2023-12-29T04:20:48;11.00;;;5.00;;
66585;SDS011;53444;45.822;16.092;2023-12-29T04:23:16;10.70;;;5.33;;
66585;SDS011;53444;45.822;16.092;2023-12-29T04:25:43;9.95;;;4.63;;
66585;SDS011;53444;45.822;16.092;2023-12-29T04:28:09;9.13;;;4.57;;
66585;SDS011;53444;45.822;16.092;2023-12-29T04:30:36;12.07;;;4.43;;
66585;SDS011;53444;45.822;16.092;2023-12-29T04:33:03;7.93;;;3.63;;
66585;SDS011;53444;45.822;16.092;2023-12-29T04:35:30;8.97;;;4.23;;
66585;SDS011;53444;45.822;16.092;2023-12-29T04:37:57;7.35;;;4.28;;
66585;SDS011;53444;45.822;16.092;2023-12-29T04:40:25;11.35;;;6.22;;
66585;SDS011;53444;45.822;16.092;2023-12-29T04:42:52;9.55;;;5.32;;
66585;SDS011;53444;45.822;16.092;2023-12-29T04:45:19;9.80;;;5.30;;
66585;SDS011;53444;45.822;16.092;2023-12-29T04:47:46;8.30;;;4.77;;
66585;SDS011;53444;45.822;16.092;2023-12-29T04:50:12;15.15;;;6.75;;
66585;SDS011;53444;45.822;16.092;2023-12-29T04:52:39;14.13;;;6.38;;
66585;SDS011;53444;45.822;16.092;2023-12-29T04:55:06;9.35;;;4.53;;
66585;SDS011;53444;45.822;16.092;2023-12-29T04:57:35;7.43;;;4.13;;
66585;SDS011;53444;45.822;16.092;2023-12-29T05:00:02;8.97;;;4.43;;
66585;SDS011;53444;45.822;16.092;2023-12-29T05:02:30;10.48;;;4.95;;
66585;SDS011;53444;45.822;16.092;2023-12-29T05:04:56;7.85;;;4.68;;
66585;SDS011;53444;45.822;16.092;2023-12-29T05:07:23;9.38;;;4.50;;
66585;SDS011;53444;45.822;16.092;2023-12-29T05:09:51;10.23;;;5.25;;
66585;SDS011;53444;45.822;16.092;2023-12-29T05:12:17;10.97;;;5.40;;
66585;SDS011;53444;45.822;16.092;2023-12-29T05:14:46;9.38;;;4.43;;
66585;SDS011;53444;45.822;16.092;2023-12-29T05:17:13;11.77;;;5.50;;
66585;SDS011;53444;45.822;16.092;2023-12-29T05:19:39;10.55;;;5.00;;
66585;SDS011;53444;45.822;16.092;2023-12-29T05:22:06;10.00;;;5.20;;
66585;SDS011;53444;45.822;16.092;2023-12-29T05:24:33;12.87;;;5.87;;
66585;SDS011;53444;45.822;16.092;2023-12-29T05:27:00;11.40;;;5.78;;
66585;SDS011;53444;45.822;16.092;2023-12-29T05:29:27;11.77;;;5.88;;
66585;SDS011;53444;45.822;16.092;2023-12-29T05:31:55;10.18;;;5.38;;
66585;SDS011;53444;45.822;16.092;2023-12-29T05:34:21;9.20;;;5.00;;
66585;SDS011;53444;45.822;16.092;2023-12-29T05:36:48;10.77;;;5.20;;
66585;SDS011;53444;45.822;16.092;2023-12-29T05:39:15;11.43;;;4.80;;
66585;SDS011;53444;45.822;16.092;2023-12-29T05:41:42;12.23;;;5.55;;
66585;SDS011;53444;45.822;16.092;2023-12-29T05:44:09;10.23;;;5.93;;
66585;SDS011;53444;45.822;16.092;2023-12-29T05:46:35;15.63;;;6.93;;
66585;SDS011;53444;45.822;16.092;2023-12-29T05:49:03;16.53;;;7.27;;
66585;SDS011;53444;45.822;16.092;2023-12-29T05:51:30;22.77;;;9.80;;
66585;SDS011;53444;45.822;16.092;2023-12-29T05:53:57;22.17;;;9.57;;
66585;SDS011;53444;45.822;16.092;2023-12-29T05:56:24;16.42;;;7.78;;
66585;SDS011;53444;45.822;16.092;2023-12-29T05:58:51;16.92;;;8.00;;
66585;SDS011;53444;45.822;16.092;2023-12-29T06:01:17;19.07;;;8.30;;
66585;SDS011;53444;45.822;16.092;2023-12-29T06:03:44;20.85;;;8.95;;
66585;SDS011;53444;45.822;16.092;2023-12-29T06:06:12;22.50;;;9.57;;
66585;SDS011;53444;45.822;16.092;2023-12-29T06:08:39;16.10;;;8.40;;
66585;SDS011;53444;45.822;16.092;2023-12-29T06:11:06;39.45;;;18.33;;
66585;SDS011;53444;45.822;16.092;2023-12-29T06:13:33;50.07;;;21.17;;
66585;SDS011;53444;45.822;16.092;2023-12-29T06:15:59;43.17;;;18.15;;
66585;SDS011;53444;45.822;16.092;2023-12-29T06:18:30;39.55;;;16.67;;
66585;SDS011;53444;45.822;16.092;2023-12-29T06:20:57;30.80;;;14.23;;
66585;SDS011;53444;45.822;16.092;2023-12-29T06:23:26;34.17;;;15.38;;
66585;SDS011;53444;45.822;16.092;2023-12-29T06:25:53;31.20;;;14.87;;
66585;SDS011;53444;45.822;16.092;2023-12-29T06:28:20;20.60;;;11.55;;
66585;SDS011;53444;45.822;16.092;2023-12-29T06:30:47;24.90;;;11.48;;
66585;SDS011;53444;45.822;16.092;2023-12-29T06:33:13;25.83;;;12.05;;
66585;SDS011;53444;45.822;16.092;2023-12-29T06:35:40;24.92;;;11.95;;
66585;SDS011;53444;45.822;16.092;2023-12-29T06:38:07;23.30;;;11.70;;
66585;SDS011;53444;45.822;16.092;2023-12-29T06:40:35;23.67;;;12.20;;
66585;SDS011;53444;45.822;16.092;2023-12-29T06:43:02;24.88;;;12.13;;
66585;SDS011;53444;45.822;16.092;2023-12-29T06:45:29;23.42;;;12.45;;
66585;SDS011;53444;45.822;16.092;2023-12-29T06:47:56;28.83;;;13.05;;
66585;SDS011;53444;45.822;16.092;2023-12-29T06:50:23;26.53;;;12.90;;
66585;SDS011;53444;45.822;16.092;2023-12-29T06:52:50;27.60;;;13.50;;
66585;SDS011;53444;45.822;16.092;2023-12-29T06:55:17;22.23;;;12.65;;
66585;SDS011;53444;45.822;16.092;2023-12-29T06:57:45;30.10;;;15.35;;
66585;SDS011;53444;45.822;16.092;2023-12-29T07:00:12;33.67;;;17.15;;
66585;SDS011;53444;45.822;16.092;2023-12-29T07:02:39;36.87;;;17.13;;
66585;SDS011;53444;45.822;16.092;2023-12-29T07:05:07;35.13;;;16.08;;
66585;SDS011;53444;45.822;16.092;2023-12-29T07:07:34;33.88;;;16.65;;
66585;SDS011;53444;45.822;16.092;2023-12-29T07:10:02;34.38;;;17.10;;
66585;SDS011;53444;45.822;16.092;2023-12-29T07:12:31;33.45;;;17.15;;
66585;SDS011;53444;45.822;16.092;2023-12-29T07:14:59;32.60;;;15.73;;
66585;SDS011;53444;45.822;16.092;2023-12-29T07:17:26;30.20;;;15.15;;
66585;SDS011;53444;45.822;16.092;2023-12-29T07:19:56;29.27;;;15.27;;
66585;SDS011;53444;45.822;16.092;2023-12-29T07:22:23;29.90;;;15.15;;
66585;SDS011;53444;45.822;16.092;2023-12-29T07:24:50;30.73;;;15.25;;
66585;SDS011;53444;45.822;16.092;2023-12-29T07:27:21;27.13;;;14.97;;
66585;SDS011;53444;45.822;16.092;2023-12-29T07:29:48;29.08;;;14.88;;
66585;SDS011;53444;45.822;16.092;2023-12-29T07:32:22;25.88;;;14.80;;
66585;SDS011;53444;45.822;16.092;2023-12-29T07:34:48;33.35;;;16.10;;
66585;SDS011;53444;45.822;16.092;2023-12-29T07:37:15;34.85;;;19.02;;
66585;SDS011;53444;45.822;16.092;2023-12-29T07:39:42;41.40;;;20.83;;
66585;SDS011;53444;45.822;16.092;2023-12-29T07:42:08;40.85;;;19.27;;
66585;SDS011;53444;45.822;16.092;2023-12-29T07:44:35;46.15;;;21.00;;
66585;SDS011;53444;45.822;16.092;2023-12-29T07:47:02;47.65;;;22.58;;
66585;SDS011;53444;45.822;16.092;2023-12-29T07:49:31;43.70;;;21.52;;
66585;SDS011;53444;45.822;16.092;2023-12-29T07:51:57;43.47;;;19.97;;
66585;SDS011;53444;45.822;16.092;2023-12-29T07:54:24;41.20;;;18.83;;
66585;SDS011;53444;45.822;16.092;2023-12-29T07:56:51;40.10;;;19.35;;
66585;SDS011;53444;45.822;16.092;2023-12-29T07:59:18;33.20;;;16.15;;
66585;SDS011;53444;45.822;16.092;2023-12-29T08:01:45;31.05;;;15.57;;
66585;SDS011;53444;45.822;16.092;2023-12-29T08:04:12;25.47;;;12.20;;
66585;SDS011;53444;45.822;16.092;2023-12-29T08:06:40;21.00;;;10.35;;
66585;SDS011;53444;45.822;16.092;2023-12-29T08:09:07;20.08;;;9.30;;
66585;SDS011;53444;45.822;16.092;2023-12-29T08:11:34;22.25;;;9.82;;
66585;SDS011;53444;45.822;16.092;2023-12-29T08:14:01;13.85;;;8.15;;
66585;SDS011;53444;45.822;16.092;2023-12-29T08:16:28;13.63;;;6.70;;
66585;SDS011;53444;45.822;16.092;2023-12-29T08:18:54;13.45;;;6.82;;
66585;SDS011;53444;45.822;16.092;2023-12-29T08:21:21;11.30;;;6.18;;
66585;SDS011;53444;45.822;16.092;2023-12-29T08:23:49;13.02;;;6.25;;
66585;SDS011;53444;45.822;16.092;2023-12-29T08:26:16;15.05;;;7.15;;
66585;SDS011;53444;45.822;16.092;2023-12-29T08:28:43;12.63;;;6.73;;
66585;SDS011;53444;45.822;16.092;2023-12-29T08:31:10;13.60;;;6.35;;
66585;SDS011;53444;45.822;16.092;2023-12-29T08:33:37;8.60;;;5.22;;
66585;SDS011;53444;45.822;16.092;2023-12-29T08:36:04;7.70;;;3.85;;
66585;SDS011;53444;45.822;16.092;2023-12-29T08:38:32;7.45;;;4.50;;
66585;SDS011;53444;45.822;16.092;2023-12-29T08:41:01;8.02;;;4.15;;
66585;SDS011;53444;45.822;16.092;2023-12-29T08:43:29;9.98;;;4.30;;
66585;SDS011;53444;45.822;16.092;2023-12-29T08:45:56;7.28;;;4.03;;
66585;SDS011;53444;45.822;16.092;2023-12-29T08:48:23;7.85;;;4.00;;
66585;SDS011;53444;45.822;16.092;2023-12-29T08:50:50;7.40;;;3.53;;
66585;SDS011;53444;45.822;16.092;2023-12-29T08:53:17;11.35;;;4.38;;
66585;SDS011;53444;45.822;16.092;2023-12-29T08:55:44;6.68;;;4.20;;
66585;SDS011;53444;45.822;16.092;2023-12-29T08:58:13;7.15;;;3.63;;
66585;SDS011;53444;45.822;16.092;2023-12-29T09:00:39;7.85;;;3.22;;
66585;SDS011;53444;45.822;16.092;2023-12-29T09:03:06;5.20;;;3.33;;
66585;SDS011;53444;45.822;16.092;2023-12-29T09:05:33;5.68;;;3.65;;
66585;SDS011;53444;45.822;16.092;2023-12-29T09:08:00;6.63;;;3.90;;
66585;SDS011;53444;45.822;16.092;2023-12-29T09:10:27;5.85;;;3.35;;
66585;SDS011;53444;45.822;16.092;2023-12-29T09:12:53;7.90;;;3.88;;
66585;SDS011;53444;45.822;16.092;2023-12-29T09:15:22;7.78;;;3.30;;
66585;SDS011;53444;45.822;16.092;2023-12-29T09:17:49;6.75;;;3.88;;
66585;SDS011;53444;45.822;16.092;2023-12-29T09:20:16;6.93;;;3.40;;
66585;SDS011;53444;45.822;16.092;2023-12-29T09:22:43;7.35;;;3.83;;
66585;SDS011;53444;45.822;16.092;2023-12-29T09:25:10;4.63;;;2.85;;
66585;SDS011;53444;45.822;16.092;2023-12-29T09:27:37;6.95;;;3.95;;
66585;SDS011;53444;45.822;16.092;2023-12-29T09:30:04;4.72;;;3.33;;
66585;SDS011;53444;45.822;16.092;2023-12-29T09:32:34;10.52;;;3.53;;
66585;SDS011;53444;45.822;16.092;2023-12-29T09:35:01;5.65;;;3.65;;
66585;SDS011;53444;45.822;16.092;2023-12-29T09:37:29;7.53;;;3.70;;
66585;SDS011;53444;45.822;16.092;2023-12-29T09:39:56;8.23;;;3.78;;
66585;SDS011;53444;45.822;16.092;2023-12-29T09:42:22;5.38;;;3.00;;
66585;SDS011;53444;45.822;16.092;2023-12-29T09:44:54;4.00;;;2.85;;
66585;SDS011;53444;45.822;16.092;2023-12-29T09:47:22;9.35;;;3.65;;
66585;SDS011;53444;45.822;16.092;2023-12-29T09:49:51;5.47;;;3.50;;
66585;SDS011;53444;45.822;16.092;2023-12-29T09:52:20;8.25;;;3.72;;
66585;SDS011;53444;45.822;16.092;2023-12-29T09:54:48;6.47;;;3.53;;
66585;SDS011;53444;45.822;16.092;2023-12-29T09:57:15;9.50;;;3.83;;
66585;SDS011;53444;45.822;16.092;2023-12-29T09:59:43;7.80;;;3.97;;
66585;SDS011;53444;45.822;16.092;2023-12-29T10:02:12;7.43;;;3.72;;
66585;SDS011;53444;45.822;16.092;2023-12-29T10:04:41;6.47;;;3.63;;
66585;SDS011;53444;45.822;16.092;2023-12-29T10:07:10;7.28;;;3.15;;
66585;SDS011;53444;45.822;16.092;2023-12-29T10:09:42;6.35;;;3.40;;
66585;SDS011;53444;45.822;16.092;2023-12-29T10:12:11;7.20;;;3.75;;
66585;SDS011;53444;45.822;16.092;2023-12-29T10:14:41;9.63;;;4.45;;
66585;SDS011;53444;45.822;16.092;2023-12-29T10:17:17;6.20;;;3.30;;
66585;SDS011;53444;45.822;16.092;2023-12-29T10:19:58;10.43;;;5.30;;
66585;SDS011;53444;45.822;16.092;2023-12-29T10:22:42;15.02;;;6.25;;
66585;SDS011;53444;45.822;16.092;2023-12-29T10:25:17;13.98;;;6.45;;
66585;SDS011;53444;45.822;16.092;2023-12-29T10:27:45;8.30;;;3.88;;
66585;SDS011;53444;45.822;16.092;2023-12-29T10:30:12;5.32;;;3.20;;
66585;SDS011;53444;45.822;16.092;2023-12-29T10:32:39;6.03;;;3.45;;
66585;SDS011;53444;45.822;16.092;2023-12-29T10:35:09;6.88;;;2.92;;
66585;SDS011;53444;45.822;16.092;2023-12-29T10:37:38;4.65;;;2.83;;
66585;SDS011;53444;45.822;16.092;2023-12-29T10:40:05;6.55;;;3.30;;
66585;SDS011;53444;45.822;16.092;2023-12-29T10:42:34;6.75;;;4.25;;
66585;SDS011;53444;45.822;16.092;2023-12-29T10:45:07;6.55;;;3.42;;
66585;SDS011;53444;45.822;16.092;2023-12-29T10:47:35;9.27;;;4.07;;
66585;SDS011;53444;45.822;16.092;2023-12-29T10:50:03;6.00;;;3.65;;
66585;SDS011;53444;45.822;16.092;2023-12-29T10:52:31;5.93;;;2.80;;
66585;SDS011;53444;45.822;16.092;2023-12-29T10:55:06;5.72;;;3.72;;
66585;SDS011;53444;45.822;16.092;2023-12-29T10:57:35;5.45;;;3.10;;
66585;SDS011;53444;45.822;16.092;2023-12-29T11:00:02;7.40;;;3.25;;
66585;SDS011;53444;45.822;16.092;2023-12-29T11:02:33;8.50;;;3.65;;
66585;SDS011;53444;45.822;16.092;2023-12-29T11:05:07;7.47;;;4.78;;
66585;SDS011;53444;45.822;16.092;2023-12-29T11:07:36;5.38;;;3.33;;
66585;SDS011;53444;45.822;16.092;2023-12-29T11:10:09;5.15;;;3.65;;
66585;SDS011;53444;45.822;16.092;2023-12-29T11:12:39;6.80;;;3.55;;
66585;SDS011;53444;45.822;16.092;2023-12-29T11:15:07;6.13;;;3.00;;
66585;SDS011;53444;45.822;16.092;2023-12-29T11:17:35;6.82;;;2.95;;
66585;SDS011;53444;45.822;16.092;2023-12-29T11:20:03;6.65;;;3.63;;
66585;SDS011;53444;45.822;16.092;2023-12-29T11:22:31;5.53;;;2.83;;
66585;SDS011;53444;45.822;16.092;2023-12-29T11:24:59;4.63;;;2.78;;
66585;SDS011;53444;45.822;16.092;2023-12-29T11:27:28;5.50;;;3.25;;
66585;SDS011;53444;45.822;16.092;2023-12-29T11:29:56;6.70;;;3.30;;
66585;SDS011;53444;45.822;16.092;2023-12-29T11:32:27;5.00;;;3.17;;
66585;SDS011;53444;45.822;16.092;2023-12-29T11:35:12;7.05;;;3.35;;
66585;SDS011;53444;45.822;16.092;2023-12-29T11:40:39;4.57;;;3.15;;
66585;SDS011;53444;45.822;16.092;2023-12-29T11:43:19;7.90;;;3.58;;
66585;SDS011;53444;45.822;16.092;2023-12-29T11:45:48;5.85;;;3.28;;
66585;SDS011;53444;45.822;16.092;2023-12-29T11:48:53;7.28;;;3.50;;
66585;SDS011;53444;45.822;16.092;2023-12-29T11:51:30;5.30;;;3.08;;
66585;SDS011;53444;45.822;16.092;2023-12-29T11:54:00;5.70;;;3.20;;
66585;SDS011;53444;45.822;16.092;2023-12-29T11:56:31;6.28;;;4.18;;
66585;SDS011;53444;45.822;16.092;2023-12-29T11:59:13;5.10;;;3.70;;
66585;SDS011;53444;45.822;16.092;2023-12-29T12:01:40;6.93;;;3.95;;
66585;SDS011;53444;45.822;16.092;2023-12-29T12:07:06;6.47;;;4.13;;
66585;SDS011;53444;45.822;16.092;2023-12-29T12:09:34;7.20;;;4.15;;
66585;SDS011;53444;45.822;16.092;2023-12-29T12:12:01;7.22;;;4.68;;
66585;SDS011;53444;45.822;16.092;2023-12-29T12:14:50;7.72;;;3.83;;
66585;SDS011;53444;45.822;16.092;2023-12-29T12:17:30;10.80;;;7.57;;
66585;SDS011;53444;45.822;16.092;2023-12-29T12:19:59;11.93;;;7.22;;
66585;SDS011;53444;45.822;16.092;2023-12-29T12:22:29;6.25;;;3.80;;
66585;SDS011;53444;45.822;16.092;2023-12-29T12:24:57;4.80;;;3.70;;
66585;SDS011;53444;45.822;16.092;2023-12-29T12:27:24;7.85;;;4.45;;
66585;SDS011;53444;45.822;16.092;2023-12-29T12:29:56;7.65;;;5.22;;
66585;SDS011;53444;45.822;16.092;2023-12-29T12:32:25;5.35;;;3.97;;
66585;SDS011;53444;45.822;16.092;2023-12-29T12:34:52;7.43;;;4.28;;
66585;SDS011;53444;45.822;16.092;2023-12-29T12:37:20;7.50;;;3.75;;
66585;SDS011;53444;45.822;16.092;2023-12-29T12:39:47;7.47;;;4.80;;
66585;SDS011;53444;45.822;16.092;2023-12-29T12:42:15;7.57;;;4.40;;
66585;SDS011;53444;45.822;16.092;2023-12-29T12:44:46;9.38;;;5.60;;
66585;SDS011;53444;45.822;16.092;2023-12-29T12:47:18;8.27;;;4.80;;
66585;SDS011;53444;45.822;16.092;2023-12-29T12:49:52;11.32;;;5.63;;
66585;SDS011;53444;45.822;16.092;2023-12-29T12:52:19;6.65;;;4.10;;
66585;SDS011;53444;45.822;16.092;2023-12-29T12:54:46;6.73;;;3.80;;
66585;SDS011;53444;45.822;16.092;2023-12-29T12:57:17;9.50;;;5.13;;
66585;SDS011;53444;45.822;16.092;2023-12-29T12:59:48;10.65;;;5.80;;
66585;SDS011;53444;45.822;16.092;2023-12-29T13:02:16;6.25;;;4.03;;
66585;SDS011;53444;45.822;16.092;2023-12-29T13:04:45;7.20;;;4.22;;
66585;SDS011;53444;45.822;16.092;2023-12-29T13:07:14;6.77;;;3.80;;
66585;SDS011;53444;45.822;16.092;2023-12-29T13:09:42;7.93;;;4.18;;
66585;SDS011;53444;45.822;16.092;2023-12-29T13:12:10;10.27;;;5.25;;
66585;SDS011;53444;45.822;16.092;2023-12-29T13:14:37;9.05;;;5.13;;
66585;SDS011;53444;45.822;16.092;2023-12-29T13:17:07;7.35;;;4.00;;
66585;SDS011;53444;45.822;16.092;2023-12-29T13:19:37;6.43;;;4.10;;
66585;SDS011;53444;45.822;16.092;2023-12-29T13:22:06;7.00;;;4.53;;
66585;SDS011;53444;45.822;16.092;2023-12-29T13:24:34;5.97;;;4.07;;
66585;SDS011;53444;45.822;16.092;2023-12-29T13:27:04;6.07;;;3.55;;
66585;SDS011;53444;45.822;16.092;2023-12-29T13:29:33;7.97;;;4.60;;
66585;SDS011;53444;45.822;16.092;2023-12-29T13:32:03;7.93;;;4.40;;
66585;SDS011;53444;45.822;16.092;2023-12-29T13:34:35;9.48;;;4.82;;
66585;SDS011;53444;45.822;16.092;2023-12-29T13:37:15;10.68;;;4.72;;
66585;SDS011;53444;45.822;16.092;2023-12-29T13:39:46;7.90;;;4.22;;
66585;SDS011;53444;45.822;16.092;2023-12-29T13:42:19;8.60;;;4.60;;
66585;SDS011;53444;45.822;16.092;2023-12-29T13:44:50;11.88;;;5.15;;
66585;SDS011;53444;45.822;16.092;2023-12-29T13:47:18;8.30;;;4.80;;
66585;SDS011;53444;45.822;16.092;2023-12-29T13:49:48;11.02;;;5.38;;
66585;SDS011;53444;45.822;16.092;2023-12-29T13:52:17;12.15;;;7.38;;
66585;SDS011;53444;45.822;16.092;2023-12-29T13:54:45;28.33;;;13.55;;
66585;SDS011;53444;45.822;16.092;2023-12-29T13:57:12;17.85;;;8.25;;
66585;SDS011;53444;45.822;16.092;2023-12-29T13:59:39;16.02;;;8.73;;
66585;SDS011;53444;45.822;16.092;2023-12-29T14:02:18;16.33;;;9.30;;
66585;SDS011;53444;45.822;16.092;2023-12-29T14:04:56;23.50;;;13.00;;
66585;SDS011;53444;45.822;16.092;2023-12-29T14:07:37;14.13;;;7.20;;
66585;SDS011;53444;45.822;16.092;2023-12-29T14:10:11;12.95;;;7.32;;
66585;SDS011;53444;45.822;16.092;2023-12-29T14:12:38;9.55;;;4.95;;
66585;SDS011;53444;45.822;16.092;2023-12-29T14:15:11;8.70;;;5.22;;
66585;SDS011;53444;45.822;16.092;2023-12-29T14:17:38;7.97;;;5.15;;
66585;SDS011;53444;45.822;16.092;2023-12-29T14:20:07;7.03;;;4.35;;
66585;SDS011;53444;45.822;16.092;2023-12-29T14:22:35;9.57;;;4.78;;
66585;SDS011;53444;45.822;16.092;2023-12-29T14:25:02;12.48;;;6.95;;
66585;SDS011;53444;45.822;16.092;2023-12-29T14:27:30;10.65;;;5.60;;
66585;SDS011;53444;45.822;16.092;2023-12-29T14:29:57;11.38;;;6.57;;
66585;SDS011;53444;45.822;16.092;2023-12-29T14:32:24;9.13;;;5.15;;
66585;SDS011;53444;45.822;16.092;2023-12-29T14:34:54;26.88;;;10.52;;
66585;SDS011;53444;45.822;16.092;2023-12-29T14:37:22;23.23;;;10.68;;
66585;SDS011;53444;45.822;16.092;2023-12-29T14:39:50;18.55;;;7.68;;